LFOP 220830Z AUTO 21010KT 9999 FEW014 SCT022 16/11 Q1011 TEMPO VRB20G35KT 1200 TSRAGS BKN004 BKN015CB

ElémentsDécodage
LFOP Station météo située sur l'aérodrome de ROUEN Vallée-de-Seine
220830Z émis le 22 du mois à 08h30 UTC
AUTO Bulletin édité par un automate
21010KT vent du 210°, 10 noeuds
9999 visibilité horizontale supérieure à 10 Km
FEW014 nuages rares (1/8 à 2/8) à 1400 pieds
SCT022 nuages épars (3/8 à 4/8) à 2200 pieds
16/11 température 16°C, point de rosée 11°C
 soit une humidité relative de 72%
Q1011 la pression au niveau de la mer (QNH) est de 1011 hPa
TEMPO fluctuation temporaire prévue
VRB20G35KT vent de direction variable, moyenne: 20 noeuds, avec rafales à 35 noeuds
1200 visibilité horizontale de 1200 mètres
TSRAGS élement non décodé
BKN004 nuages morcelés (5/8 à 7/8) à 400 pieds
BKN015CB nuages morcelés (5/8 à 7/8) à 1500 pieds
 présence de cumulonimbus